LAN049 SCEL-SCJO
Flight info
| Callsign | LAN049 |
|---|---|
| Flight time | 1h 19m |
| Altitude | 35000 |
| Route | ANGOD6C ANGOD UQ803 ERUKA ERUKA3C |
| Aircraft | A321/M-SDE3FGHIRWY/LB1 |
Departure
| Time | 2026-05-06 20:01 |
|---|---|
| Airport | Comodoro Arturo Merino Benítez International Airport (SCEL) |
Arrival
| Time | 2026-05-06 21:20 |
|---|---|
| Airport | Cañal Bajo Carlos Hott Siebert Airport (SCJO) |
| Time | Latitude | Longitude | Altitude | Speed | Heading |
|---|---|---|---|---|---|
| 2026-05-06 19:38 | -33.39569 | -70.79154 | 1570 ft | 0 kts | 176° |
| 2026-05-06 19:42 | -33.39568 | -70.79154 | 1570 ft | 0 kts | 176° |
| 2026-05-06 19:49 | -33.39547 | -70.79155 | 1567 ft | 4 kts | 176° |
| 2026-05-06 19:49 | -33.39524 | -70.79157 | 1569 ft | 4 kts | 185° |
| 2026-05-06 19:49 | -33.39504 | -70.79147 | 1569 ft | 4 kts | 243° |
| 2026-05-06 19:50 | -33.39498 | -70.79120 | 1570 ft | 2 kts | 267° |
| 2026-05-06 19:50 | -33.39498 | -70.79113 | 1570 ft | 0 kts | 267° |
| 2026-05-06 19:54 | -33.39499 | -70.79147 | 1570 ft | 11 kts | 267° |
| 2026-05-06 19:54 | -33.39505 | -70.79290 | 1568 ft | 19 kts | 268° |
| 2026-05-06 19:54 | -33.39511 | -70.79445 | 1568 ft | 18 kts | 266° |
| 2026-05-06 19:54 | -33.39495 | -70.79570 | 1568 ft | 14 kts | 322° |
| 2026-05-06 19:55 | -33.39385 | -70.79587 | 1568 ft | 18 kts | 357° |
| 2026-05-06 19:55 | -33.39334 | -70.79670 | 1569 ft | 15 kts | 267° |
| 2026-05-06 19:55 | -33.39341 | -70.79803 | 1568 ft | 16 kts | 268° |
| 2026-05-06 19:55 | -33.39344 | -70.79934 | 1569 ft | 15 kts | 271° |
| 2026-05-06 19:56 | -33.39298 | -70.80035 | 1569 ft | 15 kts | 324° |
| 2026-05-06 19:56 | -33.39176 | -70.80064 | 1568 ft | 22 kts | 354° |
| 2026-05-06 19:56 | -33.39008 | -70.80072 | 1569 ft | 28 kts | 357° |
| 2026-05-06 19:56 | -33.38810 | -70.80085 | 1569 ft | 28 kts | 356° |
| 2026-05-06 19:57 | -33.38621 | -70.80094 | 1569 ft | 26 kts | 357° |
| 2026-05-06 19:57 | -33.38441 | -70.80103 | 1570 ft | 25 kts | 357° |
| 2026-05-06 19:57 | -33.38269 | -70.80113 | 1570 ft | 24 kts | 358° |
| 2026-05-06 19:57 | -33.38104 | -70.80121 | 1570 ft | 23 kts | 358° |
| 2026-05-06 19:58 | -33.37948 | -70.80130 | 1569 ft | 22 kts | 357° |
| 2026-05-06 19:58 | -33.37800 | -70.80138 | 1569 ft | 20 kts | 357° |
| 2026-05-06 19:58 | -33.37661 | -70.80145 | 1570 ft | 21 kts | 357° |
| 2026-05-06 19:58 | -33.37509 | -70.80153 | 1571 ft | 22 kts | 357° |
| 2026-05-06 19:59 | -33.37364 | -70.80161 | 1569 ft | 20 kts | 358° |
| 2026-05-06 19:59 | -33.37231 | -70.80168 | 1571 ft | 19 kts | 358° |
| 2026-05-06 19:59 | -33.37116 | -70.80206 | 1571 ft | 15 kts | 313° |
| 2026-05-06 19:59 | -33.37105 | -70.80298 | 1575 ft | 8 kts | 260° |
| 2026-05-06 20:00 | -33.37140 | -70.80360 | 1576 ft | 15 kts | 216° |
| 2026-05-06 20:00 | -33.37197 | -70.80375 | 1576 ft | 0 kts | 177° |
| 2026-05-06 20:00 | -33.37213 | -70.80374 | 1576 ft | 18 kts | 177° |
| 2026-05-06 20:00 | -33.37588 | -70.80353 | 1576 ft | 87 kts | 177° |
| 2026-05-06 20:01 | -33.38382 | -70.80310 | 1576 ft | 138 kts | 177° |
| 2026-05-06 20:01 | -33.39480 | -70.80247 | 1594 ft | 175 kts | 176° |
| 2026-05-06 20:01 | -33.40673 | -70.80184 | 2203 ft | 171 kts | 176° |
| 2026-05-06 20:01 | -33.41946 | -70.80121 | 2356 ft | 196 kts | 178° |
| 2026-05-06 20:02 | -33.43372 | -70.80052 | 2589 ft | 214 kts | 178° |
| 2026-05-06 20:02 | -33.44942 | -70.79979 | 2765 ft | 240 kts | 179° |
| 2026-05-06 20:02 | -33.46709 | -70.79879 | 3109 ft | 264 kts | 179° |
| 2026-05-06 20:02 | -33.48570 | -70.79768 | 3857 ft | 273 kts | 179° |
| 2026-05-06 20:03 | -33.50482 | -70.79657 | 4711 ft | 276 kts | 180° |
| 2026-05-06 20:03 | -33.52418 | -70.79547 | 5562 ft | 278 kts | 180° |
| 2026-05-06 20:03 | -33.54362 | -70.79442 | 6361 ft | 281 kts | 181° |
| 2026-05-06 20:03 | -33.56305 | -70.79339 | 7091 ft | 285 kts | 181° |
| 2026-05-06 20:04 | -33.58319 | -70.79246 | 7859 ft | 287 kts | 185° |
| 2026-05-06 20:04 | -33.60272 | -70.79586 | 8574 ft | 284 kts | 199° |
| 2026-05-06 20:04 | -33.62173 | -70.80184 | 9330 ft | 287 kts | 199° |
| 2026-05-06 20:04 | -33.64142 | -70.80802 | 10075 ft | 291 kts | 199° |
| 2026-05-06 20:05 | -33.66135 | -70.81433 | 10418 ft | 312 kts | 199° |
| 2026-05-06 20:05 | -33.67588 | -70.81896 | 10632 ft | 328 kts | 199° |
| 2026-05-06 20:05 | -33.70622 | -70.82854 | 11268 ft | 342 kts | 199° |
| 2026-05-06 20:05 | -33.72911 | -70.83563 | 11953 ft | 345 kts | 199° |
| 2026-05-06 20:06 | -33.75251 | -70.84284 | 12757 ft | 348 kts | 199° |
| 2026-05-06 20:06 | -33.77605 | -70.85013 | 13552 ft | 351 kts | 199° |
| 2026-05-06 20:06 | -33.79974 | -70.85747 | 14278 ft | 353 kts | 199° |
| 2026-05-06 20:06 | -33.82372 | -70.86489 | 14895 ft | 356 kts | 199° |
| 2026-05-06 20:07 | -33.84778 | -70.87236 | 15479 ft | 359 kts | 199° |
| 2026-05-06 20:07 | -33.87207 | -70.87992 | 16067 ft | 361 kts | 199° |
| 2026-05-06 20:07 | -33.89645 | -70.88755 | 16682 ft | 363 kts | 200° |
| 2026-05-06 20:07 | -33.92100 | -70.89524 | 17280 ft | 366 kts | 200° |
| 2026-05-06 20:08 | -33.94576 | -70.90302 | 17846 ft | 369 kts | 200° |
| 2026-05-06 20:08 | -33.97073 | -70.91085 | 18374 ft | 372 kts | 200° |
| 2026-05-06 20:08 | -33.99586 | -70.91871 | 18855 ft | 375 kts | 200° |
| 2026-05-06 20:08 | -34.02122 | -70.92656 | 19390 ft | 377 kts | 200° |
| 2026-05-06 20:09 | -34.04680 | -70.93394 | 19883 ft | 380 kts | 199° |
| 2026-05-06 20:09 | -34.07272 | -70.94096 | 20395 ft | 383 kts | 199° |
| 2026-05-06 20:09 | -34.09890 | -70.94785 | 20906 ft | 386 kts | 198° |
| 2026-05-06 20:09 | -34.12524 | -70.95477 | 21421 ft | 389 kts | 199° |
| 2026-05-06 20:10 | -34.15145 | -70.96171 | 21915 ft | 391 kts | 199° |
| 2026-05-06 20:10 | -34.17847 | -70.96897 | 22419 ft | 394 kts | 199° |
| 2026-05-06 20:10 | -34.20529 | -70.97627 | 22911 ft | 397 kts | 199° |
| 2026-05-06 20:10 | -34.23237 | -70.98368 | 23411 ft | 399 kts | 199° |
| 2026-05-06 20:11 | -34.25917 | -70.99104 | 23837 ft | 402 kts | 200° |
| 2026-05-06 20:11 | -34.28654 | -70.99856 | 24211 ft | 404 kts | 200° |
| 2026-05-06 20:11 | -34.31404 | -71.00605 | 24588 ft | 406 kts | 200° |
| 2026-05-06 20:11 | -34.34173 | -71.01357 | 24960 ft | 409 kts | 200° |
| 2026-05-06 20:12 | -34.36960 | -71.02115 | 25366 ft | 411 kts | 201° |
| 2026-05-06 20:12 | -34.39757 | -71.02882 | 25758 ft | 413 kts | 201° |
| 2026-05-06 20:12 | -34.42568 | -71.03653 | 26104 ft | 415 kts | 201° |
| 2026-05-06 20:12 | -34.45393 | -71.04428 | 26458 ft | 417 kts | 201° |
| 2026-05-06 20:13 | -34.47271 | -71.04944 | 26701 ft | 419 kts | 201° |
| 2026-05-06 20:13 | -34.51084 | -71.05995 | 27183 ft | 421 kts | 201° |
| 2026-05-06 20:13 | -34.53951 | -71.06786 | 27551 ft | 423 kts | 201° |
| 2026-05-06 20:13 | -34.56831 | -71.07577 | 27877 ft | 426 kts | 201° |
| 2026-05-06 20:14 | -34.59732 | -71.08373 | 28235 ft | 428 kts | 202° |
| 2026-05-06 20:14 | -34.62642 | -71.09171 | 28596 ft | 430 kts | 202° |
| 2026-05-06 20:14 | -34.65563 | -71.09975 | 28927 ft | 432 kts | 202° |
| 2026-05-06 20:14 | -34.68502 | -71.10786 | 29260 ft | 434 kts | 202° |
| 2026-05-06 20:15 | -34.71455 | -71.11601 | 29565 ft | 436 kts | 202° |
| 2026-05-06 20:15 | -34.73419 | -71.12141 | 29755 ft | 438 kts | 202° |
| 2026-05-06 20:15 | -34.77384 | -71.13164 | 30134 ft | 442 kts | 201° |
| 2026-05-06 20:15 | -34.79426 | -71.13659 | 30323 ft | 444 kts | 200° |
| 2026-05-06 20:16 | -34.83465 | -71.14603 | 30640 ft | 447 kts | 200° |
| 2026-05-06 20:16 | -34.86530 | -71.15318 | 30903 ft | 449 kts | 200° |
| 2026-05-06 20:16 | -34.88601 | -71.15804 | 31158 ft | 448 kts | 200° |
| 2026-05-06 20:16 | -34.92655 | -71.16772 | 31623 ft | 448 kts | 200° |
| 2026-05-06 20:17 | -34.94720 | -71.17272 | 31852 ft | 448 kts | 200° |
| 2026-05-06 20:17 | -34.97776 | -71.18018 | 32179 ft | 448 kts | 200° |
| 2026-05-06 20:17 | -35.00790 | -71.18759 | 32508 ft | 448 kts | 201° |
| 2026-05-06 20:17 | -35.03849 | -71.19512 | 32837 ft | 448 kts | 201° |
| 2026-05-06 20:18 | -35.06909 | -71.20263 | 33169 ft | 448 kts | 200° |
| 2026-05-06 20:18 | -35.09967 | -71.21012 | 33531 ft | 448 kts | 200° |
| 2026-05-06 20:18 | -35.13022 | -71.21758 | 33914 ft | 448 kts | 200° |
| 2026-05-06 20:18 | -35.16086 | -71.22506 | 34285 ft | 447 kts | 200° |
| 2026-05-06 20:19 | -35.19133 | -71.23251 | 34580 ft | 447 kts | 200° |
| 2026-05-06 20:19 | -35.22179 | -71.23997 | 34848 ft | 446 kts | 200° |
| 2026-05-06 20:19 | -35.25227 | -71.24743 | 35063 ft | 447 kts | 200° |
| 2026-05-06 20:19 | -35.28271 | -71.25487 | 35126 ft | 443 kts | 200° |
| 2026-05-06 20:20 | -35.34252 | -71.26951 | 35135 ft | 440 kts | 200° |
| 2026-05-06 20:20 | -35.40248 | -71.28440 | 35132 ft | 439 kts | 200° |
| 2026-05-06 20:21 | -35.46238 | -71.29917 | 35132 ft | 439 kts | 200° |
| 2026-05-06 20:21 | -35.52223 | -71.31388 | 35134 ft | 439 kts | 200° |
| 2026-05-06 20:22 | -35.58210 | -71.32870 | 35140 ft | 439 kts | 200° |
| 2026-05-06 20:22 | -35.64208 | -71.34362 | 35140 ft | 439 kts | 200° |
| 2026-05-06 20:23 | -35.70202 | -71.35861 | 35136 ft | 439 kts | 199° |
| 2026-05-06 20:23 | -35.76195 | -71.37350 | 35141 ft | 439 kts | 199° |
| 2026-05-06 20:24 | -35.82178 | -71.38840 | 35136 ft | 439 kts | 199° |
| 2026-05-06 20:24 | -35.88162 | -71.40338 | 35139 ft | 439 kts | 199° |
| 2026-05-06 20:25 | -35.94144 | -71.41826 | 35134 ft | 438 kts | 199° |
| 2026-05-06 20:25 | -36.00131 | -71.43321 | 35140 ft | 438 kts | 199° |
| 2026-05-06 20:26 | -36.06065 | -71.44813 | 35131 ft | 438 kts | 199° |
| 2026-05-06 20:26 | -36.12047 | -71.46306 | 35129 ft | 438 kts | 199° |
| 2026-05-06 20:27 | -36.18019 | -71.47807 | 35130 ft | 438 kts | 199° |
| 2026-05-06 20:27 | -36.23990 | -71.49321 | 35125 ft | 438 kts | 199° |
| 2026-05-06 20:28 | -36.29955 | -71.50835 | 35129 ft | 438 kts | 199° |
| 2026-05-06 20:28 | -36.35940 | -71.52353 | 35118 ft | 438 kts | 198° |
| 2026-05-06 20:29 | -36.41917 | -71.53862 | 35117 ft | 438 kts | 198° |
| 2026-05-06 20:29 | -36.47850 | -71.55363 | 35116 ft | 438 kts | 198° |
| 2026-05-06 20:30 | -36.56823 | -71.57646 | 35110 ft | 438 kts | 198° |
| 2026-05-06 20:31 | -36.62797 | -71.59171 | 35104 ft | 438 kts | 198° |
| 2026-05-06 20:31 | -36.68779 | -71.60687 | 35100 ft | 438 kts | 198° |
| 2026-05-06 20:32 | -36.74758 | -71.62205 | 35103 ft | 439 kts | 198° |
| 2026-05-06 20:32 | -36.80706 | -71.63723 | 35099 ft | 438 kts | 198° |
| 2026-05-06 20:33 | -36.86688 | -71.65262 | 35098 ft | 439 kts | 198° |
| 2026-05-06 20:33 | -36.92668 | -71.66804 | 35096 ft | 438 kts | 197° |
| 2026-05-06 20:34 | -36.98646 | -71.68337 | 35084 ft | 438 kts | 197° |
| 2026-05-06 20:34 | -37.04628 | -71.69878 | 35095 ft | 438 kts | 197° |
| 2026-05-06 20:35 | -37.10566 | -71.71413 | 35097 ft | 438 kts | 197° |
| 2026-05-06 20:35 | -37.16540 | -71.72950 | 35089 ft | 438 kts | 197° |
| 2026-05-06 20:36 | -37.22514 | -71.74502 | 35088 ft | 438 kts | 197° |
| 2026-05-06 20:36 | -37.28478 | -71.76054 | 35083 ft | 438 kts | 197° |
| 2026-05-06 20:37 | -37.34454 | -71.77605 | 35083 ft | 438 kts | 197° |
| 2026-05-06 20:37 | -37.40418 | -71.79153 | 35081 ft | 438 kts | 197° |
| 2026-05-06 20:38 | -37.46348 | -71.80694 | 35079 ft | 438 kts | 196° |
| 2026-05-06 20:38 | -37.52322 | -71.82245 | 35075 ft | 438 kts | 196° |
| 2026-05-06 20:39 | -37.58282 | -71.83800 | 35077 ft | 438 kts | 196° |
| 2026-05-06 20:39 | -37.64254 | -71.85363 | 35077 ft | 438 kts | 196° |
| 2026-05-06 20:40 | -37.70226 | -71.86933 | 35072 ft | 438 kts | 196° |
| 2026-05-06 20:40 | -37.76173 | -71.88602 | 35072 ft | 437 kts | 198° |
| 2026-05-06 20:41 | -37.82065 | -71.90472 | 35073 ft | 437 kts | 199° |
| 2026-05-06 20:41 | -37.87954 | -71.92376 | 35072 ft | 437 kts | 198° |
| 2026-05-06 20:42 | -37.93849 | -71.94237 | 35072 ft | 437 kts | 198° |
| 2026-05-06 20:42 | -37.99722 | -71.96061 | 35073 ft | 437 kts | 198° |
| 2026-05-06 20:43 | -38.05626 | -71.97904 | 35078 ft | 437 kts | 198° |
| 2026-05-06 20:43 | -38.11542 | -71.99766 | 35081 ft | 437 kts | 198° |
| 2026-05-06 20:44 | -38.17453 | -72.01624 | 35081 ft | 438 kts | 198° |
| 2026-05-06 20:44 | -38.23369 | -72.03486 | 35082 ft | 438 kts | 198° |
| 2026-05-06 20:45 | -38.29286 | -72.05357 | 35086 ft | 438 kts | 198° |
| 2026-05-06 20:45 | -38.35163 | -72.07215 | 35086 ft | 438 kts | 197° |
| 2026-05-06 20:46 | -38.41071 | -72.09084 | 35087 ft | 438 kts | 197° |
| 2026-05-06 20:46 | -38.46987 | -72.10959 | 35088 ft | 438 kts | 197° |
| 2026-05-06 20:47 | -38.52905 | -72.12833 | 35087 ft | 438 kts | 197° |
| 2026-05-06 20:47 | -38.58818 | -72.14720 | 35087 ft | 438 kts | 197° |
| 2026-05-06 20:48 | -38.64736 | -72.16617 | 35084 ft | 438 kts | 197° |
| 2026-05-06 20:48 | -38.70620 | -72.18501 | 35083 ft | 438 kts | 197° |
| 2026-05-06 20:49 | -38.76536 | -72.20398 | 35084 ft | 438 kts | 197° |
| 2026-05-06 20:49 | -38.82443 | -72.22293 | 35080 ft | 438 kts | 197° |
| 2026-05-06 20:50 | -38.88359 | -72.24190 | 35081 ft | 438 kts | 197° |
| 2026-05-06 20:50 | -38.91316 | -72.25140 | 34955 ft | 438 kts | 197° |
| 2026-05-06 20:50 | -38.93286 | -72.25775 | 34392 ft | 443 kts | 197° |
| 2026-05-06 20:50 | -38.94176 | -72.26062 | 34186 ft | 444 kts | 197° |
| 2026-05-06 20:51 | -38.97174 | -72.27024 | 33538 ft | 443 kts | 197° |
| 2026-05-06 20:51 | -39.00155 | -72.27982 | 32971 ft | 440 kts | 197° |
| 2026-05-06 20:51 | -39.03144 | -72.28945 | 31959 ft | 448 kts | 197° |
| 2026-05-06 20:51 | -39.06124 | -72.29907 | 31434 ft | 445 kts | 197° |
| 2026-05-06 20:52 | -39.09111 | -72.30875 | 30886 ft | 441 kts | 197° |
| 2026-05-06 20:52 | -39.12077 | -72.31838 | 30346 ft | 439 kts | 197° |
| 2026-05-06 20:52 | -39.15037 | -72.32799 | 29747 ft | 436 kts | 197° |
| 2026-05-06 20:52 | -39.17962 | -72.33747 | 29221 ft | 431 kts | 197° |
| 2026-05-06 20:53 | -39.20851 | -72.34680 | 28696 ft | 426 kts | 197° |
| 2026-05-06 20:53 | -39.23718 | -72.35606 | 28169 ft | 422 kts | 197° |
| 2026-05-06 20:53 | -39.26550 | -72.36522 | 27660 ft | 417 kts | 197° |
| 2026-05-06 20:53 | -39.29349 | -72.37431 | 27165 ft | 413 kts | 197° |
| 2026-05-06 20:54 | -39.32123 | -72.38336 | 26681 ft | 409 kts | 197° |
| 2026-05-06 20:54 | -39.34864 | -72.39227 | 26203 ft | 404 kts | 197° |
| 2026-05-06 20:54 | -39.37576 | -72.40108 | 25751 ft | 400 kts | 197° |
| 2026-05-06 20:54 | -39.40260 | -72.40981 | 25292 ft | 395 kts | 197° |
| 2026-05-06 20:55 | -39.42919 | -72.41850 | 24849 ft | 391 kts | 197° |
| 2026-05-06 20:55 | -39.45541 | -72.42710 | 24421 ft | 387 kts | 197° |
| 2026-05-06 20:55 | -39.48135 | -72.43564 | 23977 ft | 383 kts | 197° |
| 2026-05-06 20:55 | -39.50675 | -72.44401 | 23534 ft | 379 kts | 197° |
| 2026-05-06 20:56 | -39.53253 | -72.45245 | 23056 ft | 374 kts | 197° |
| 2026-05-06 20:56 | -39.55758 | -72.46063 | 22619 ft | 369 kts | 197° |
| 2026-05-06 20:56 | -39.58231 | -72.46866 | 22190 ft | 364 kts | 197° |
| 2026-05-06 20:56 | -39.60670 | -72.47657 | 21761 ft | 359 kts | 197° |
| 2026-05-06 20:57 | -39.63045 | -72.48433 | 21345 ft | 354 kts | 197° |
| 2026-05-06 20:57 | -39.65422 | -72.49213 | 20916 ft | 351 kts | 197° |
| 2026-05-06 20:57 | -39.67777 | -72.49990 | 20493 ft | 347 kts | 197° |
| 2026-05-06 20:57 | -39.70103 | -72.50762 | 20071 ft | 344 kts | 197° |
| 2026-05-06 20:58 | -39.72414 | -72.51529 | 19651 ft | 340 kts | 197° |
| 2026-05-06 20:58 | -39.74655 | -72.52441 | 19237 ft | 335 kts | 205° |
| 2026-05-06 20:58 | -39.76687 | -72.53866 | 18802 ft | 330 kts | 216° |
| 2026-05-06 20:58 | -39.78548 | -72.55588 | 18394 ft | 328 kts | 217° |
| 2026-05-06 20:59 | -39.80398 | -72.57301 | 17948 ft | 325 kts | 217° |
| 2026-05-06 20:59 | -39.82235 | -72.58999 | 17524 ft | 321 kts | 217° |
| 2026-05-06 20:59 | -39.84046 | -72.60671 | 17126 ft | 317 kts | 217° |
| 2026-05-06 20:59 | -39.85822 | -72.62310 | 16725 ft | 314 kts | 216° |
| 2026-05-06 21:00 | -39.87608 | -72.63959 | 16308 ft | 311 kts | 216° |
| 2026-05-06 21:00 | -39.89363 | -72.65583 | 15934 ft | 308 kts | 216° |
| 2026-05-06 21:00 | -39.91101 | -72.67193 | 15554 ft | 305 kts | 216° |
| 2026-05-06 21:00 | -39.92820 | -72.68789 | 15174 ft | 302 kts | 216° |
| 2026-05-06 21:01 | -39.94528 | -72.70375 | 14780 ft | 300 kts | 216° |
| 2026-05-06 21:01 | -39.96221 | -72.71948 | 14404 ft | 298 kts | 216° |
| 2026-05-06 21:01 | -39.97906 | -72.73516 | 14016 ft | 297 kts | 216° |
| 2026-05-06 21:01 | -39.99583 | -72.75077 | 13611 ft | 295 kts | 216° |
| 2026-05-06 21:02 | -40.01245 | -72.76628 | 13219 ft | 293 kts | 216° |
| 2026-05-06 21:02 | -40.02896 | -72.78166 | 12824 ft | 290 kts | 216° |
| 2026-05-06 21:02 | -40.03981 | -72.79179 | 12561 ft | 288 kts | 216° |
| 2026-05-06 21:02 | -40.05604 | -72.80693 | 12179 ft | 286 kts | 216° |
| 2026-05-06 21:03 | -40.07222 | -72.82200 | 11794 ft | 284 kts | 215° |
| 2026-05-06 21:03 | -40.09345 | -72.84179 | 11285 ft | 282 kts | 215° |
| 2026-05-06 21:03 | -40.10934 | -72.85659 | 10885 ft | 280 kts | 215° |
| 2026-05-06 21:03 | -40.12004 | -72.86658 | 10628 ft | 279 kts | 215° |
| 2026-05-06 21:04 | -40.13576 | -72.88129 | 10287 ft | 276 kts | 215° |
| 2026-05-06 21:04 | -40.15105 | -72.89562 | 10142 ft | 265 kts | 215° |
| 2026-05-06 21:04 | -40.16586 | -72.90950 | 10017 ft | 260 kts | 215° |
| 2026-05-06 21:04 | -40.18055 | -72.92327 | 9888 ft | 259 kts | 215° |
| 2026-05-06 21:05 | -40.19497 | -72.93679 | 9684 ft | 258 kts | 215° |
| 2026-05-06 21:05 | -40.20961 | -72.95049 | 9269 ft | 259 kts | 215° |
| 2026-05-06 21:05 | -40.22428 | -72.96423 | 8826 ft | 259 kts | 215° |
| 2026-05-06 21:05 | -40.23886 | -72.97791 | 8473 ft | 256 kts | 215° |
| 2026-05-06 21:06 | -40.25320 | -72.99140 | 8142 ft | 253 kts | 215° |
| 2026-05-06 21:06 | -40.26751 | -73.00486 | 7805 ft | 252 kts | 215° |
| 2026-05-06 21:06 | -40.28172 | -73.01823 | 7477 ft | 251 kts | 214° |
| 2026-05-06 21:06 | -40.29588 | -73.03152 | 7150 ft | 250 kts | 214° |
| 2026-05-06 21:07 | -40.30999 | -73.04478 | 6819 ft | 249 kts | 214° |
| 2026-05-06 21:07 | -40.32400 | -73.05796 | 6497 ft | 248 kts | 214° |
| 2026-05-06 21:07 | -40.33798 | -73.07113 | 6155 ft | 246 kts | 214° |
| 2026-05-06 21:07 | -40.35182 | -73.08417 | 5828 ft | 243 kts | 214° |
| 2026-05-06 21:08 | -40.36540 | -73.09700 | 5511 ft | 239 kts | 214° |
| 2026-05-06 21:08 | -40.37878 | -73.10966 | 5200 ft | 235 kts | 214° |
| 2026-05-06 21:08 | -40.39197 | -73.12217 | 4897 ft | 232 kts | 214° |
| 2026-05-06 21:08 | -40.40498 | -73.13447 | 4581 ft | 229 kts | 214° |
| 2026-05-06 21:09 | -40.41787 | -73.14666 | 4278 ft | 227 kts | 214° |
| 2026-05-06 21:09 | -40.43062 | -73.15869 | 3982 ft | 225 kts | 214° |
| 2026-05-06 21:09 | -40.44361 | -73.16934 | 3833 ft | 215 kts | 199° |
| 2026-05-06 21:09 | -40.45784 | -73.17111 | 3706 ft | 210 kts | 171° |
| 2026-05-06 21:10 | -40.47117 | -73.16302 | 3410 ft | 216 kts | 145° |
| 2026-05-06 21:10 | -40.48078 | -73.14755 | 3121 ft | 224 kts | 120° |
| 2026-05-06 21:10 | -40.48446 | -73.12750 | 3002 ft | 233 kts | 93° |
| 2026-05-06 21:10 | -40.48162 | -73.10837 | 3005 ft | 240 kts | 69° |
| 2026-05-06 21:11 | -40.47170 | -73.09060 | 3012 ft | 246 kts | 39° |
| 2026-05-06 21:11 | -40.45652 | -73.08073 | 3007 ft | 246 kts | 9° |
| 2026-05-06 21:11 | -40.43971 | -73.08117 | 3009 ft | 241 kts | 340° |
| 2026-05-06 21:11 | -40.42428 | -73.08939 | 3009 ft | 239 kts | 331° |
| 2026-05-06 21:12 | -40.40924 | -73.09864 | 3005 ft | 239 kts | 330° |
| 2026-05-06 21:12 | -40.39426 | -73.10811 | 3003 ft | 239 kts | 330° |
| 2026-05-06 21:12 | -40.37928 | -73.11756 | 3008 ft | 238 kts | 330° |
| 2026-05-06 21:12 | -40.36432 | -73.12692 | 3009 ft | 238 kts | 330° |
| 2026-05-06 21:13 | -40.34956 | -73.13657 | 3007 ft | 236 kts | 322° |
| 2026-05-06 21:13 | -40.33902 | -73.15199 | 3007 ft | 224 kts | 289° |
| 2026-05-06 21:13 | -40.33626 | -73.17123 | 3036 ft | 207 kts | 260° |
| 2026-05-06 21:13 | -40.34053 | -73.18833 | 3018 ft | 193 kts | 235° |
| 2026-05-06 21:14 | -40.34981 | -73.20055 | 3010 ft | 189 kts | 211° |
| 2026-05-06 21:14 | -40.36221 | -73.20609 | 3014 ft | 191 kts | 187° |
| 2026-05-06 21:14 | -40.37537 | -73.20381 | 3017 ft | 195 kts | 162° |
| 2026-05-06 21:14 | -40.38791 | -73.19676 | 3007 ft | 196 kts | 159° |
| 2026-05-06 21:15 | -40.40027 | -73.18908 | 3010 ft | 197 kts | 158° |
| 2026-05-06 21:15 | -40.41258 | -73.18125 | 3018 ft | 196 kts | 158° |
| 2026-05-06 21:15 | -40.42490 | -73.17349 | 3013 ft | 196 kts | 159° |
| 2026-05-06 21:15 | -40.43720 | -73.16587 | 2860 ft | 194 kts | 159° |
| 2026-05-06 21:16 | -40.44891 | -73.15868 | 2805 ft | 176 kts | 160° |
| 2026-05-06 21:16 | -40.45959 | -73.15214 | 2706 ft | 163 kts | 160° |
| 2026-05-06 21:16 | -40.46959 | -73.14607 | 2603 ft | 154 kts | 161° |
| 2026-05-06 21:16 | -40.47919 | -73.14027 | 2499 ft | 151 kts | 161° |
| 2026-05-06 21:17 | -40.48874 | -73.13451 | 2389 ft | 150 kts | 161° |
| 2026-05-06 21:17 | -40.49820 | -73.12881 | 2275 ft | 149 kts | 161° |
| 2026-05-06 21:17 | -40.50761 | -73.12313 | 2170 ft | 149 kts | 160° |
| 2026-05-06 21:17 | -40.51688 | -73.11754 | 2056 ft | 148 kts | 161° |
| 2026-05-06 21:18 | -40.52626 | -73.11192 | 1942 ft | 148 kts | 161° |
| 2026-05-06 21:18 | -40.53577 | -73.10622 | 1793 ft | 148 kts | 160° |
| 2026-05-06 21:18 | -40.54496 | -73.10068 | 1568 ft | 143 kts | 161° |
| 2026-05-06 21:18 | -40.55382 | -73.09533 | 1347 ft | 139 kts | 161° |
| 2026-05-06 21:19 | -40.56231 | -73.09028 | 1123 ft | 138 kts | 159° |
| 2026-05-06 21:19 | -40.57093 | -73.08510 | 941 ft | 137 kts | 157° |
| 2026-05-06 21:19 | -40.57958 | -73.07983 | 729 ft | 139 kts | 158° |
| 2026-05-06 21:19 | -40.58831 | -73.07453 | 567 ft | 139 kts | 158° |
| 2026-05-06 21:20 | -40.59708 | -73.06913 | 364 ft | 138 kts | 158° |
| 2026-05-06 21:20 | -40.60570 | -73.06391 | 207 ft | 130 kts | 159° |
| 2026-05-06 21:20 | -40.61208 | -73.06013 | 207 ft | 59 kts | 155° |
| 2026-05-06 21:20 | -40.61464 | -73.05860 | 202 ft | 37 kts | 156° |
| 2026-05-06 21:21 | -40.61624 | -73.05764 | 206 ft | 20 kts | 155° |
| 2026-05-06 21:21 | -40.61735 | -73.05706 | 206 ft | 13 kts | 167° |
| 2026-05-06 21:21 | -40.61803 | -73.05687 | 209 ft | 4 kts | 117° |
| 2026-05-06 21:21 | -40.61797 | -73.05674 | 207 ft | 2 kts | 46° |
| 2026-05-06 21:22 | -40.61773 | -73.05670 | 210 ft | 6 kts | 349° |
| 2026-05-06 21:22 | -40.61712 | -73.05709 | 210 ft | 13 kts | 335° |
| 2026-05-06 21:22 | -40.61618 | -73.05764 | 204 ft | 16 kts | 336° |
| 2026-05-06 21:22 | -40.61500 | -73.05835 | 206 ft | 21 kts | 334° |
| 2026-05-06 21:23 | -40.61351 | -73.05926 | 200 ft | 24 kts | 335° |
| 2026-05-06 21:23 | -40.61210 | -73.06010 | 207 ft | 21 kts | 335° |
| 2026-05-06 21:23 | -40.61091 | -73.06081 | 202 ft | 17 kts | 335° |
| 2026-05-06 21:23 | -40.60995 | -73.06141 | 206 ft | 13 kts | 334° |
| 2026-05-06 21:24 | -40.60913 | -73.06184 | 206 ft | 12 kts | 345° |
| 2026-05-06 21:24 | -40.60842 | -73.06190 | 208 ft | 9 kts | 4° |
| 2026-05-06 21:24 | -40.60776 | -73.06182 | 205 ft | 12 kts | 7° |
| 2026-05-06 21:24 | -40.60675 | -73.06165 | 205 ft | 15 kts | 7° |
| 2026-05-06 21:25 | -40.60578 | -73.06167 | 204 ft | 12 kts | 340° |
| 2026-05-06 21:25 | -40.60519 | -73.06195 | 203 ft | 2 kts | 11° |
| 2026-05-06 21:25 | -40.60513 | -73.06182 | 208 ft | 1 kts | 57° |
| 2026-05-06 21:25 | -40.60504 | -73.06160 | 208 ft | 1 kts | 63° |
| 2026-05-06 21:26 | -40.60500 | -73.06148 | 210 ft | 2 kts | 64° |
| 2026-05-06 21:26 | -40.60499 | -73.06145 | 209 ft | 0 kts | 65° |
| 2026-05-06 21:28 | -40.60499 | -73.06146 | 209 ft | 0 kts | 65° |
| 2026-05-06 21:55 | -40.60499 | -73.06147 | 189 ft | 0 kts | 65° |
| 2026-05-06 22:25 | -40.60500 | -73.06147 | 197 ft | 0 kts | 65° |
| 2026-05-06 22:33 | -40.60500 | -73.06148 | 197 ft | 0 kts | 65° |
| 2026-05-06 23:23 | -40.60500 | -73.06149 | 197 ft | 0 kts | 65° |
| 2026-05-07 00:11 | -40.60500 | -73.06150 | 170 ft | 0 kts | 65° |